sensor_id;sensor_type;location;lat;lon;timestamp;temperature;humidity
2663;DHT22;49701;48.072;7.800;2022-10-22T00:01:28;14.20;99.90
2663;DHT22;49701;48.072;7.800;2022-10-22T00:03:53;14.20;99.90
2663;DHT22;49701;48.072;7.800;2022-10-22T00:06:19;14.20;99.90
2663;DHT22;49701;48.072;7.800;2022-10-22T00:08:44;14.20;99.90
2663;DHT22;49701;48.072;7.800;2022-10-22T00:11:11;14.30;99.90
2663;DHT22;49701;48.072;7.800;2022-10-22T00:13:37;14.20;99.90
2663;DHT22;49701;48.072;7.800;2022-10-22T00:16:03;14.20;99.90
2663;DHT22;49701;48.072;7.800;2022-10-22T00:18:28;14.30;99.90
2663;DHT22;49701;48.072;7.800;2022-10-22T00:20:54;14.20;99.90
2663;DHT22;49701;48.072;7.800;2022-10-22T00:23:19;14.20;99.90
2663;DHT22;49701;48.072;7.800;2022-10-22T00:25:45;14.30;99.90
2663;DHT22;49701;48.072;7.800;2022-10-22T00:28:10;14.20;99.90
2663;DHT22;49701;48.072;7.800;2022-10-22T00:30:36;14.20;99.90
2663;DHT22;49701;48.072;7.800;2022-10-22T00:33:01;14.20;99.90
2663;DHT22;49701;48.072;7.800;2022-10-22T00:35:27;14.20;99.90
2663;DHT22;49701;48.072;7.800;2022-10-22T00:37:53;14.20;99.90
2663;DHT22;49701;48.072;7.800;2022-10-22T00:40:18;14.10;99.90
2663;DHT22;49701;48.072;7.800;2022-10-22T00:42:44;14.00;99.90
2663;DHT22;49701;48.072;7.800;2022-10-22T00:47:54;14.00;99.90
2663;DHT22;49701;48.072;7.800;2022-10-22T00:50:33;14.10;99.90
2663;DHT22;49701;48.072;7.800;2022-10-22T00:53:00;14.10;99.90
2663;DHT22;49701;48.072;7.800;2022-10-22T00:55:26;14.10;99.90
2663;DHT22;49701;48.072;7.800;2022-10-22T00:57:53;14.00;99.90
2663;DHT22;49701;48.072;7.800;2022-10-22T01:00:19;14.10;99.90
2663;DHT22;49701;48.072;7.800;2022-10-22T01:02:46;14.10;99.90
2663;DHT22;49701;48.072;7.800;2022-10-22T01:05:12;14.00;99.90
2663;DHT22;49701;48.072;7.800;2022-10-22T01:07:42;14.10;99.90
2663;DHT22;49701;48.072;7.800;2022-10-22T01:15:12;14.10;99.90
2663;DHT22;49701;48.072;7.800;2022-10-22T01:17:40;14.10;99.90
2663;DHT22;49701;48.072;7.800;2022-10-22T01:22:39;14.10;99.90
2663;DHT22;49701;48.072;7.800;2022-10-22T01:30:22;14.10;99.90
2663;DHT22;49701;48.072;7.800;2022-10-22T01:32:49;14.10;99.90
2663;DHT22;49701;48.072;7.800;2022-10-22T01:35:17;14.10;99.90
2663;DHT22;49701;48.072;7.800;2022-10-22T01:37:46;14.10;99.90
2663;DHT22;49701;48.072;7.800;2022-10-22T01:40:13;14.10;99.90
2663;DHT22;49701;48.072;7.800;2022-10-22T01:42:39;14.10;99.90
2663;DHT22;49701;48.072;7.800;2022-10-22T01:45:09;14.10;99.90
2663;DHT22;49701;48.072;7.800;2022-10-22T01:52:57;14.10;99.90
2663;DHT22;49701;48.072;7.800;2022-10-22T01:55:30;14.10;99.90
2663;DHT22;49701;48.072;7.800;2022-10-22T01:58:02;14.10;99.90
2663;DHT22;49701;48.072;7.800;2022-10-22T02:00:30;14.10;99.90
2663;DHT22;49701;48.072;7.800;2022-10-22T02:03:00;14.10;99.90
2663;DHT22;49701;48.072;7.800;2022-10-22T02:05:49;14.10;99.90
2663;DHT22;49701;48.072;7.800;2022-10-22T02:08:18;14.10;99.90
2663;DHT22;49701;48.072;7.800;2022-10-22T02:10:44;14.20;99.90
2663;DHT22;49701;48.072;7.800;2022-10-22T02:13:12;14.20;99.90
2663;DHT22;49701;48.072;7.800;2022-10-22T02:15:38;14.20;99.90
2663;DHT22;49701;48.072;7.800;2022-10-22T02:18:04;14.20;99.90
2663;DHT22;49701;48.072;7.800;2022-10-22T02:20:32;14.20;99.90
2663;DHT22;49701;48.072;7.800;2022-10-22T02:22:59;14.10;99.90
2663;DHT22;49701;48.072;7.800;2022-10-22T02:25:30;14.10;99.90
2663;DHT22;49701;48.072;7.800;2022-10-22T02:30:25;14.10;99.90
2663;DHT22;49701;48.072;7.800;2022-10-22T02:32:53;14.10;99.90
2663;DHT22;49701;48.072;7.800;2022-10-22T02:35:21;14.00;99.90
2663;DHT22;49701;48.072;7.800;2022-10-22T02:37:47;14.00;99.90
2663;DHT22;49701;48.072;7.800;2022-10-22T02:40:13;14.00;99.90
2663;DHT22;49701;48.072;7.800;2022-10-22T02:42:39;14.00;99.90
2663;DHT22;49701;48.072;7.800;2022-10-22T02:45:06;14.00;99.90
2663;DHT22;49701;48.072;7.800;2022-10-22T02:47:31;14.00;99.90
2663;DHT22;49701;48.072;7.800;2022-10-22T02:49:57;14.00;99.90
2663;DHT22;49701;48.072;7.800;2022-10-22T02:52:22;14.00;99.90
2663;DHT22;49701;48.072;7.800;2022-10-22T02:54:48;14.00;99.90
2663;DHT22;49701;48.072;7.800;2022-10-22T02:57:13;13.90;99.90
2663;DHT22;49701;48.072;7.800;2022-10-22T02:59:39;14.00;99.90
2663;DHT22;49701;48.072;7.800;2022-10-22T03:02:04;13.90;99.90
2663;DHT22;49701;48.072;7.800;2022-10-22T03:04:30;13.90;99.90
2663;DHT22;49701;48.072;7.800;2022-10-22T03:06:55;13.90;99.90
2663;DHT22;49701;48.072;7.800;2022-10-22T03:09:21;13.90;99.90
2663;DHT22;49701;48.072;7.800;2022-10-22T03:11:46;13.90;99.90
2663;DHT22;49701;48.072;7.800;2022-10-22T03:14:12;13.90;99.90
2663;DHT22;49701;48.072;7.800;2022-10-22T03:16:37;13.90;99.90
2663;DHT22;49701;48.072;7.800;2022-10-22T03:19:03;13.90;99.90
2663;DHT22;49701;48.072;7.800;2022-10-22T03:21:31;13.90;99.90
2663;DHT22;49701;48.072;7.800;2022-10-22T03:23:58;13.90;99.90
2663;DHT22;49701;48.072;7.800;2022-10-22T03:26:23;13.90;99.90
2663;DHT22;49701;48.072;7.800;2022-10-22T03:28:49;13.90;99.90
2663;DHT22;49701;48.072;7.800;2022-10-22T03:31:15;13.90;99.90
2663;DHT22;49701;48.072;7.800;2022-10-22T03:33:40;13.90;99.90
2663;DHT22;49701;48.072;7.800;2022-10-22T03:36:06;13.80;99.90
2663;DHT22;49701;48.072;7.800;2022-10-22T03:38:33;13.80;99.90
2663;DHT22;49701;48.072;7.800;2022-10-22T03:40:59;13.80;99.90
2663;DHT22;49701;48.072;7.800;2022-10-22T03:43:24;13.80;99.90
2663;DHT22;49701;48.072;7.800;2022-10-22T03:45:50;13.80;99.90
2663;DHT22;49701;48.072;7.800;2022-10-22T03:48:15;13.70;99.90
2663;DHT22;49701;48.072;7.800;2022-10-22T03:50:41;13.70;99.90
2663;DHT22;49701;48.072;7.800;2022-10-22T03:53:06;13.70;99.90
2663;DHT22;49701;48.072;7.800;2022-10-22T03:55:34;13.70;99.90
2663;DHT22;49701;48.072;7.800;2022-10-22T03:58:00;13.70;99.90
2663;DHT22;49701;48.072;7.800;2022-10-22T04:00:26;13.70;99.90
2663;DHT22;49701;48.072;7.800;2022-10-22T04:02:51;13.70;99.90
2663;DHT22;49701;48.072;7.800;2022-10-22T04:05:17;13.60;99.90
2663;DHT22;49701;48.072;7.800;2022-10-22T04:07:42;13.60;99.90
2663;DHT22;49701;48.072;7.800;2022-10-22T04:10:08;13.60;99.90
2663;DHT22;49701;48.072;7.800;2022-10-22T04:12:33;13.60;99.90
2663;DHT22;49701;48.072;7.800;2022-10-22T04:14:59;13.60;99.90
2663;DHT22;49701;48.072;7.800;2022-10-22T04:17:24;13.50;99.90
2663;DHT22;49701;48.072;7.800;2022-10-22T04:19:50;13.50;99.90
2663;DHT22;49701;48.072;7.800;2022-10-22T04:22:15;13.40;99.90
2663;DHT22;49701;48.072;7.800;2022-10-22T04:24:41;13.40;99.90
2663;DHT22;49701;48.072;7.800;2022-10-22T04:27:06;13.30;99.90
2663;DHT22;49701;48.072;7.800;2022-10-22T04:29:31;13.40;99.90
2663;DHT22;49701;48.072;7.800;2022-10-22T04:31:57;13.30;99.90
2663;DHT22;49701;48.072;7.800;2022-10-22T04:34:25;13.30;99.90
2663;DHT22;49701;48.072;7.800;2022-10-22T04:36:50;13.30;99.90
2663;DHT22;49701;48.072;7.800;2022-10-22T04:39:16;13.20;99.90
2663;DHT22;49701;48.072;7.800;2022-10-22T04:41:41;13.20;99.90
2663;DHT22;49701;48.072;7.800;2022-10-22T04:44:07;13.20;99.90
2663;DHT22;49701;48.072;7.800;2022-10-22T04:46:33;13.20;99.90
2663;DHT22;49701;48.072;7.800;2022-10-22T04:48:59;13.10;99.90
2663;DHT22;49701;48.072;7.800;2022-10-22T04:51:24;13.10;99.90
2663;DHT22;49701;48.072;7.800;2022-10-22T04:53:50;13.10;99.90
2663;DHT22;49701;48.072;7.800;2022-10-22T04:56:17;13.10;99.90
2663;DHT22;49701;48.072;7.800;2022-10-22T04:59:07;13.10;99.90
2663;DHT22;49701;48.072;7.800;2022-10-22T05:01:35;13.10;99.90
2663;DHT22;49701;48.072;7.800;2022-10-22T05:04:03;13.00;99.90
2663;DHT22;49701;48.072;7.800;2022-10-22T05:06:29;13.10;99.90
2663;DHT22;49701;48.072;7.800;2022-10-22T05:08:56;13.10;99.90
2663;DHT22;49701;48.072;7.800;2022-10-22T05:11:23;13.10;99.90
2663;DHT22;49701;48.072;7.800;2022-10-22T05:13:48;13.10;99.90
2663;DHT22;49701;48.072;7.800;2022-10-22T05:16:14;13.10;99.90
2663;DHT22;49701;48.072;7.800;2022-10-22T05:18:40;13.10;99.90
2663;DHT22;49701;48.072;7.800;2022-10-22T05:21:10;13.10;99.90
2663;DHT22;49701;48.072;7.800;2022-10-22T05:23:36;13.10;99.90
2663;DHT22;49701;48.072;7.800;2022-10-22T05:26:02;13.10;99.90
2663;DHT22;49701;48.072;7.800;2022-10-22T05:28:28;13.00;99.90
2663;DHT22;49701;48.072;7.800;2022-10-22T05:30:54;13.00;99.90
2663;DHT22;49701;48.072;7.800;2022-10-22T05:33:19;13.00;99.90
2663;DHT22;49701;48.072;7.800;2022-10-22T05:35:47;13.00;99.90
2663;DHT22;49701;48.072;7.800;2022-10-22T05:38:12;13.00;99.90
2663;DHT22;49701;48.072;7.800;2022-10-22T05:40:38;13.00;99.90
2663;DHT22;49701;48.072;7.800;2022-10-22T05:43:03;13.00;99.90
2663;DHT22;49701;48.072;7.800;2022-10-22T05:45:29;13.00;99.90
2663;DHT22;49701;48.072;7.800;2022-10-22T05:47:54;13.00;99.90
2663;DHT22;49701;48.072;7.800;2022-10-22T05:50:20;13.00;99.90
2663;DHT22;49701;48.072;7.800;2022-10-22T05:52:45;13.00;99.90
2663;DHT22;49701;48.072;7.800;2022-10-22T05:55:11;12.90;99.90
2663;DHT22;49701;48.072;7.800;2022-10-22T05:57:37;13.00;99.90
2663;DHT22;49701;48.072;7.800;2022-10-22T06:00:03;12.90;99.90
2663;DHT22;49701;48.072;7.800;2022-10-22T06:02:29;12.90;99.90
2663;DHT22;49701;48.072;7.800;2022-10-22T06:04:54;12.90;99.90
2663;DHT22;49701;48.072;7.800;2022-10-22T06:07:20;12.90;99.90
2663;DHT22;49701;48.072;7.800;2022-10-22T06:09:46;12.90;99.90
2663;DHT22;49701;48.072;7.800;2022-10-22T06:12:14;12.80;99.90
2663;DHT22;49701;48.072;7.800;2022-10-22T06:14:40;12.80;99.90
2663;DHT22;49701;48.072;7.800;2022-10-22T06:17:05;12.80;99.90
2663;DHT22;49701;48.072;7.800;2022-10-22T06:19:31;12.80;99.90
2663;DHT22;49701;48.072;7.800;2022-10-22T06:21:56;12.80;99.90
2663;DHT22;49701;48.072;7.800;2022-10-22T06:24:22;12.80;99.90
2663;DHT22;49701;48.072;7.800;2022-10-22T06:26:50;12.80;99.90
2663;DHT22;49701;48.072;7.800;2022-10-22T06:29:16;12.80;99.90
2663;DHT22;49701;48.072;7.800;2022-10-22T06:31:41;12.80;99.90
2663;DHT22;49701;48.072;7.800;2022-10-22T06:34:09;12.80;99.90
2663;DHT22;49701;48.072;7.800;2022-10-22T06:36:35;12.80;99.90
2663;DHT22;49701;48.072;7.800;2022-10-22T06:39:01;12.90;99.90
2663;DHT22;49701;48.072;7.800;2022-10-22T06:41:27;12.80;99.90
2663;DHT22;49701;48.072;7.800;2022-10-22T06:43:52;12.90;99.90
2663;DHT22;49701;48.072;7.800;2022-10-22T06:46:19;12.90;99.90
2663;DHT22;49701;48.072;7.800;2022-10-22T06:48:57;12.90;99.90
2663;DHT22;49701;48.072;7.800;2022-10-22T06:51:24;12.90;99.90
2663;DHT22;49701;48.072;7.800;2022-10-22T06:53:49;12.90;99.90
2663;DHT22;49701;48.072;7.800;2022-10-22T06:56:16;12.90;99.90
2663;DHT22;49701;48.072;7.800;2022-10-22T06:58:42;13.00;99.90
2663;DHT22;49701;48.072;7.800;2022-10-22T07:01:12;13.00;99.90
2663;DHT22;49701;48.072;7.800;2022-10-22T07:03:38;13.00;99.90
2663;DHT22;49701;48.072;7.800;2022-10-22T07:06:05;13.00;99.90
2663;DHT22;49701;48.072;7.800;2022-10-22T07:08:31;13.10;99.90
2663;DHT22;49701;48.072;7.800;2022-10-22T07:11:03;13.10;99.90
2663;DHT22;49701;48.072;7.800;2022-10-22T07:13:29;13.20;99.90
2663;DHT22;49701;48.072;7.800;2022-10-22T07:15:54;13.30;99.90
2663;DHT22;49701;48.072;7.800;2022-10-22T07:18:20;13.40;99.90
2663;DHT22;49701;48.072;7.800;2022-10-22T07:20:46;13.50;99.90
2663;DHT22;49701;48.072;7.800;2022-10-22T07:23:11;13.60;99.90
2663;DHT22;49701;48.072;7.800;2022-10-22T07:25:37;13.70;99.90
2663;DHT22;49701;48.072;7.800;2022-10-22T07:28:02;13.80;99.90
2663;DHT22;49701;48.072;7.800;2022-10-22T07:30:28;13.80;99.90
2663;DHT22;49701;48.072;7.800;2022-10-22T07:32:53;13.90;99.90
2663;DHT22;49701;48.072;7.800;2022-10-22T07:35:19;14.10;99.90
2663;DHT22;49701;48.072;7.800;2022-10-22T07:37:44;14.20;99.90
2663;DHT22;49701;48.072;7.800;2022-10-22T07:40:10;14.30;99.90
2663;DHT22;49701;48.072;7.800;2022-10-22T07:42:36;14.30;99.90
2663;DHT22;49701;48.072;7.800;2022-10-22T07:45:01;14.40;99.90
2663;DHT22;49701;48.072;7.800;2022-10-22T07:47:27;14.40;99.90
2663;DHT22;49701;48.072;7.800;2022-10-22T07:49:52;14.40;99.90
2663;DHT22;49701;48.072;7.800;2022-10-22T07:52:18;14.40;99.90
2663;DHT22;49701;48.072;7.800;2022-10-22T07:54:43;14.40;99.90
2663;DHT22;49701;48.072;7.800;2022-10-22T07:57:09;14.40;99.90
2663;DHT22;49701;48.072;7.800;2022-10-22T07:59:34;14.70;99.90
2663;DHT22;49701;48.072;7.800;2022-10-22T08:02:00;15.00;99.90
2663;DHT22;49701;48.072;7.800;2022-10-22T08:04:25;15.40;99.90
2663;DHT22;49701;48.072;7.800;2022-10-22T08:06:51;15.70;99.90
2663;DHT22;49701;48.072;7.800;2022-10-22T08:09:16;16.00;99.90
2663;DHT22;49701;48.072;7.800;2022-10-22T08:11:41;16.30;99.90
2663;DHT22;49701;48.072;7.800;2022-10-22T08:14:07;16.50;99.90
2663;DHT22;49701;48.072;7.800;2022-10-22T08:16:32;16.80;99.90
2663;DHT22;49701;48.072;7.800;2022-10-22T08:18:58;17.10;99.90
2663;DHT22;49701;48.072;7.800;2022-10-22T08:21:23;17.30;99.90
2663;DHT22;49701;48.072;7.800;2022-10-22T08:23:49;17.60;99.90
2663;DHT22;49701;48.072;7.800;2022-10-22T08:26:14;17.80;99.90
2663;DHT22;49701;48.072;7.800;2022-10-22T08:28:40;18.10;99.90
2663;DHT22;49701;48.072;7.800;2022-10-22T08:31:06;18.40;99.90
2663;DHT22;49701;48.072;7.800;2022-10-22T08:33:32;18.70;99.90
2663;DHT22;49701;48.072;7.800;2022-10-22T08:35:57;18.90;99.90
2663;DHT22;49701;48.072;7.800;2022-10-22T08:38:23;19.10;99.90
2663;DHT22;49701;48.072;7.800;2022-10-22T08:40:50;19.30;99.90
2663;DHT22;49701;48.072;7.800;2022-10-22T08:48:39;20.30;99.90
2663;DHT22;49701;48.072;7.800;2022-10-22T08:51:06;20.70;99.90
2663;DHT22;49701;48.072;7.800;2022-10-22T08:53:38;20.90;99.90
2663;DHT22;49701;48.072;7.800;2022-10-22T08:56:05;21.10;99.90
2663;DHT22;49701;48.072;7.800;2022-10-22T09:01:00;21.70;99.90
2663;DHT22;49701;48.072;7.800;2022-10-22T09:08:20;22.30;99.90
2663;DHT22;49701;48.072;7.800;2022-10-22T09:10:48;22.40;99.90
2663;DHT22;49701;48.072;7.800;2022-10-22T09:13:16;22.50;99.90
2663;DHT22;49701;48.072;7.800;2022-10-22T09:15:43;22.60;99.90
2663;DHT22;49701;48.072;7.800;2022-10-22T09:18:20;22.70;99.90
2663;DHT22;49701;48.072;7.800;2022-10-22T09:20:48;22.90;99.90
2663;DHT22;49701;48.072;7.800;2022-10-22T09:23:23;23.20;99.90
2663;DHT22;49701;48.072;7.800;2022-10-22T09:25:51;23.20;99.90
2663;DHT22;49701;48.072;7.800;2022-10-22T09:28:17;23.40;99.90
2663;DHT22;49701;48.072;7.800;2022-10-22T09:30:43;23.50;99.90
2663;DHT22;49701;48.072;7.800;2022-10-22T09:35:39;23.70;99.90
2663;DHT22;49701;48.072;7.800;2022-10-22T09:38:08;23.80;99.90
2663;DHT22;49701;48.072;7.800;2022-10-22T09:40:44;23.80;99.90
2663;DHT22;49701;48.072;7.800;2022-10-22T09:43:13;23.90;99.90
2663;DHT22;49701;48.072;7.800;2022-10-22T09:45:42;24.20;99.90
2663;DHT22;49701;48.072;7.800;2022-10-22T09:48:50;24.50;99.90
2663;DHT22;49701;48.072;7.800;2022-10-22T09:53:31;25.00;99.90
2663;DHT22;49701;48.072;7.800;2022-10-22T09:56:00;25.20;99.90
2663;DHT22;49701;48.072;7.800;2022-10-22T09:58:25;25.40;99.90
2663;DHT22;49701;48.072;7.800;2022-10-22T10:00:52;25.60;99.90
2663;DHT22;49701;48.072;7.800;2022-10-22T10:03:19;25.80;99.90
2663;DHT22;49701;48.072;7.800;2022-10-22T10:05:46;25.90;99.90
2663;DHT22;49701;48.072;7.800;2022-10-22T10:08:13;25.80;99.90
2663;DHT22;49701;48.072;7.800;2022-10-22T10:10:52;25.70;99.90
2663;DHT22;49701;48.072;7.800;2022-10-22T10:23:57;25.90;99.90
2663;DHT22;49701;48.072;7.800;2022-10-22T10:56:49;27.60;99.90
2663;DHT22;49701;48.072;7.800;2022-10-22T11:01:48;27.50;99.90
2663;DHT22;49701;48.072;7.800;2022-10-22T11:04:23;27.60;99.90
2663;DHT22;49701;48.072;7.800;2022-10-22T11:06:56;27.70;99.90
2663;DHT22;49701;48.072;7.800;2022-10-22T11:09:24;27.90;99.90
2663;DHT22;49701;48.072;7.800;2022-10-22T11:12:01;28.00;99.90
2663;DHT22;49701;48.072;7.800;2022-10-22T11:14:29;28.10;99.90
2663;DHT22;49701;48.072;7.800;2022-10-22T11:17:03;28.50;99.90
2663;DHT22;49701;48.072;7.800;2022-10-22T11:19:36;28.90;99.00
2663;DHT22;49701;48.072;7.800;2022-10-22T11:22:14;29.40;98.00
2663;DHT22;49701;48.072;7.800;2022-10-22T11:29:52;30.00;96.20
2663;DHT22;49701;48.072;7.800;2022-10-22T11:32:18;30.00;96.20
2663;DHT22;49701;48.072;7.800;2022-10-22T11:34:55;30.10;95.60
2663;DHT22;49701;48.072;7.800;2022-10-22T11:37:23;30.20;94.90
2663;DHT22;49701;48.072;7.800;2022-10-22T11:42:20;29.80;95.00
2663;DHT22;49701;48.072;7.800;2022-10-22T11:47:28;29.10;95.50
2663;DHT22;49701;48.072;7.800;2022-10-22T11:52:41;29.10;95.50
2663;DHT22;49701;48.072;7.800;2022-10-22T11:57:57;28.70;95.50
2663;DHT22;49701;48.072;7.800;2022-10-22T12:03:16;28.40;96.20
2663;DHT22;49701;48.072;7.800;2022-10-22T12:05:42;28.40;96.60
2663;DHT22;49701;48.072;7.800;2022-10-22T12:11:19;28.40;96.70
2663;DHT22;49701;48.072;7.800;2022-10-22T12:13:23;28.30;97.30
2663;DHT22;49701;48.072;7.800;2022-10-22T12:15:50;28.50;97.10
2663;DHT22;49701;48.072;7.800;2022-10-22T12:18:17;28.90;96.50
2663;DHT22;49701;48.072;7.800;2022-10-22T12:20:42;29.40;95.40
2663;DHT22;49701;48.072;7.800;2022-10-22T12:23:11;29.80;94.60
2663;DHT22;49701;48.072;7.800;2022-10-22T12:25:37;29.80;93.70
2663;DHT22;49701;48.072;7.800;2022-10-22T12:28:03;29.40;94.30
2663;DHT22;49701;48.072;7.800;2022-10-22T12:30:30;29.40;94.70
2663;DHT22;49701;48.072;7.800;2022-10-22T12:32:59;29.50;94.40
2663;DHT22;49701;48.072;7.800;2022-10-22T12:35:26;29.60;94.60
2663;DHT22;49701;48.072;7.800;2022-10-22T12:37:54;29.90;94.60
2663;DHT22;49701;48.072;7.800;2022-10-22T12:40:24;30.00;94.00
2663;DHT22;49701;48.072;7.800;2022-10-22T12:42:51;29.70;94.40
2663;DHT22;49701;48.072;7.800;2022-10-22T12:45:17;29.40;94.80
2663;DHT22;49701;48.072;7.800;2022-10-22T12:47:50;29.20;94.90
2663;DHT22;49701;48.072;7.800;2022-10-22T12:50:17;29.20;94.80
2663;DHT22;49701;48.072;7.800;2022-10-22T12:52:43;29.50;94.50
2663;DHT22;49701;48.072;7.800;2022-10-22T12:55:13;29.70;93.40
2663;DHT22;49701;48.072;7.800;2022-10-22T12:57:39;29.80;93.50
2663;DHT22;49701;48.072;7.800;2022-10-22T13:00:17;29.90;93.30
2663;DHT22;49701;48.072;7.800;2022-10-22T13:02:43;30.00;93.20
2663;DHT22;49701;48.072;7.800;2022-10-22T13:07:42;29.90;93.10
2663;DHT22;49701;48.072;7.800;2022-10-22T13:12:49;30.30;91.90
2663;DHT22;49701;48.072;7.800;2022-10-22T13:15:31;30.50;91.30
2663;DHT22;49701;48.072;7.800;2022-10-22T13:20:29;30.40;91.10
2663;DHT22;49701;48.072;7.800;2022-10-22T13:22:58;30.00;91.30
2663;DHT22;49701;48.072;7.800;2022-10-22T13:27:51;29.20;92.60
2663;DHT22;49701;48.072;7.800;2022-10-22T13:32:47;29.30;92.70
2663;DHT22;49701;48.072;7.800;2022-10-22T13:35:13;29.40;92.20
2663;DHT22;49701;48.072;7.800;2022-10-22T13:37:40;29.50;92.00
2663;DHT22;49701;48.072;7.800;2022-10-22T13:40:12;29.50;91.60
2663;DHT22;49701;48.072;7.800;2022-10-22T13:42:38;29.40;91.20
2663;DHT22;49701;48.072;7.800;2022-10-22T13:45:04;29.50;91.40
2663;DHT22;49701;48.072;7.800;2022-10-22T13:47:30;29.50;91.70
2663;DHT22;49701;48.072;7.800;2022-10-22T13:49:57;29.40;91.90
2663;DHT22;49701;48.072;7.800;2022-10-22T13:52:27;29.40;91.20
2663;DHT22;49701;48.072;7.800;2022-10-22T13:54:53;29.20;91.10
2663;DHT22;49701;48.072;7.800;2022-10-22T13:57:19;29.20;91.00
2663;DHT22;49701;48.072;7.800;2022-10-22T13:59:44;29.20;90.90
2663;DHT22;49701;48.072;7.800;2022-10-22T14:02:10;29.40;90.90
2663;DHT22;49701;48.072;7.800;2022-10-22T14:04:36;29.60;90.60
2663;DHT22;49701;48.072;7.800;2022-10-22T14:07:03;29.80;90.20
2663;DHT22;49701;48.072;7.800;2022-10-22T14:09:29;29.90;90.00
2663;DHT22;49701;48.072;7.800;2022-10-22T14:11:55;30.00;90.00
2663;DHT22;49701;48.072;7.800;2022-10-22T14:14:20;30.20;89.60
2663;DHT22;49701;48.072;7.800;2022-10-22T14:16:46;30.20;88.90
2663;DHT22;49701;48.072;7.800;2022-10-22T14:19:15;30.10;88.40
2663;DHT22;49701;48.072;7.800;2022-10-22T14:21:42;30.20;88.70
2663;DHT22;49701;48.072;7.800;2022-10-22T14:24:08;30.00;87.90
2663;DHT22;49701;48.072;7.800;2022-10-22T14:26:34;30.20;87.80
2663;DHT22;49701;48.072;7.800;2022-10-22T14:29:00;30.10;87.90
2663;DHT22;49701;48.072;7.800;2022-10-22T14:31:25;30.10;88.20
2663;DHT22;49701;48.072;7.800;2022-10-22T14:33:51;30.20;88.60
2663;DHT22;49701;48.072;7.800;2022-10-22T14:36:17;30.00;86.60
2663;DHT22;49701;48.072;7.800;2022-10-22T14:38:43;29.60;87.00
2663;DHT22;49701;48.072;7.800;2022-10-22T14:41:13;29.20;88.10
2663;DHT22;49701;48.072;7.800;2022-10-22T14:43:40;28.90;88.30
2663;DHT22;49701;48.072;7.800;2022-10-22T14:46:07;28.60;88.40
2663;DHT22;49701;48.072;7.800;2022-10-22T14:48:32;28.40;89.00
2663;DHT22;49701;48.072;7.800;2022-10-22T14:50:58;27.90;90.00
2663;DHT22;49701;48.072;7.800;2022-10-22T14:53:23;27.60;90.70
2663;DHT22;49701;48.072;7.800;2022-10-22T14:55:49;27.40;91.20
2663;DHT22;49701;48.072;7.800;2022-10-22T14:58:15;27.10;91.80
2663;DHT22;49701;48.072;7.800;2022-10-22T15:00:41;26.80;91.70
2663;DHT22;49701;48.072;7.800;2022-10-22T15:03:06;26.40;92.10
2663;DHT22;49701;48.072;7.800;2022-10-22T15:05:32;25.90;92.80
2663;DHT22;49701;48.072;7.800;2022-10-22T15:07:58;25.60;93.40
2663;DHT22;49701;48.072;7.800;2022-10-22T15:10:24;25.30;93.90
2663;DHT22;49701;48.072;7.800;2022-10-22T15:12:49;25.00;94.50
2663;DHT22;49701;48.072;7.800;2022-10-22T15:15:15;24.80;94.90
2663;DHT22;49701;48.072;7.800;2022-10-22T15:17:40;24.70;95.30
2663;DHT22;49701;48.072;7.800;2022-10-22T15:20:06;24.70;95.40
2663;DHT22;49701;48.072;7.800;2022-10-22T15:22:31;24.60;95.40
2663;DHT22;49701;48.072;7.800;2022-10-22T15:25:05;24.50;95.20
2663;DHT22;49701;48.072;7.800;2022-10-22T15:27:31;24.30;95.50
2663;DHT22;49701;48.072;7.800;2022-10-22T15:29:57;24.10;96.00
2663;DHT22;49701;48.072;7.800;2022-10-22T15:32:23;23.90;96.30
2663;DHT22;49701;48.072;7.800;2022-10-22T15:34:51;23.80;96.60
2663;DHT22;49701;48.072;7.800;2022-10-22T15:37:16;23.70;96.90
2663;DHT22;49701;48.072;7.800;2022-10-22T15:39:42;23.60;97.40
2663;DHT22;49701;48.072;7.800;2022-10-22T15:42:08;23.50;97.90
2663;DHT22;49701;48.072;7.800;2022-10-22T15:44:34;23.40;98.30
2663;DHT22;49701;48.072;7.800;2022-10-22T15:47:01;23.30;98.50
2663;DHT22;49701;48.072;7.800;2022-10-22T15:49:27;23.10;99.60
2663;DHT22;49701;48.072;7.800;2022-10-22T15:51:53;23.00;99.90
2663;DHT22;49701;48.072;7.800;2022-10-22T15:54:20;22.90;99.90
2663;DHT22;49701;48.072;7.800;2022-10-22T15:56:46;22.80;99.90
2663;DHT22;49701;48.072;7.800;2022-10-22T15:59:12;22.60;99.90
2663;DHT22;49701;48.072;7.800;2022-10-22T16:01:38;22.50;99.90
2663;DHT22;49701;48.072;7.800;2022-10-22T16:04:04;22.30;99.90
2663;DHT22;49701;48.072;7.800;2022-10-22T16:06:31;22.20;99.90
2663;DHT22;49701;48.072;7.800;2022-10-22T16:08:57;22.10;99.90
2663;DHT22;49701;48.072;7.800;2022-10-22T16:11:24;21.90;99.90
2663;DHT22;49701;48.072;7.800;2022-10-22T16:13:55;21.80;99.90
2663;DHT22;49701;48.072;7.800;2022-10-22T16:16:22;21.70;99.90
2663;DHT22;49701;48.072;7.800;2022-10-22T16:18:48;21.50;99.90
2663;DHT22;49701;48.072;7.800;2022-10-22T16:21:13;21.40;99.90
2663;DHT22;49701;48.072;7.800;2022-10-22T16:23:40;21.20;99.90
2663;DHT22;49701;48.072;7.800;2022-10-22T16:26:05;21.00;99.90
2663;DHT22;49701;48.072;7.800;2022-10-22T16:28:31;20.80;99.90
2663;DHT22;49701;48.072;7.800;2022-10-22T16:30:59;20.70;99.90
2663;DHT22;49701;48.072;7.800;2022-10-22T16:33:25;20.40;99.90
2663;DHT22;49701;48.072;7.800;2022-10-22T16:35:50;20.20;99.90
2663;DHT22;49701;48.072;7.800;2022-10-22T16:38:16;20.00;99.90
2663;DHT22;49701;48.072;7.800;2022-10-22T16:40:43;19.80;99.90
2663;DHT22;49701;48.072;7.800;2022-10-22T16:43:08;19.70;99.90
2663;DHT22;49701;48.072;7.800;2022-10-22T16:45:34;19.50;99.90
2663;DHT22;49701;48.072;7.800;2022-10-22T16:47:59;19.30;99.90
2663;DHT22;49701;48.072;7.800;2022-10-22T16:50:25;19.10;99.90
2663;DHT22;49701;48.072;7.800;2022-10-22T16:52:50;19.00;99.90
2663;DHT22;49701;48.072;7.800;2022-10-22T16:55:16;18.90;99.90
2663;DHT22;49701;48.072;7.800;2022-10-22T16:57:41;18.70;99.90
2663;DHT22;49701;48.072;7.800;2022-10-22T17:00:07;18.60;99.90
2663;DHT22;49701;48.072;7.800;2022-10-22T17:02:33;18.50;99.90
2663;DHT22;49701;48.072;7.800;2022-10-22T17:05:01;18.40;99.90
2663;DHT22;49701;48.072;7.800;2022-10-22T17:07:27;18.20;99.90
2663;DHT22;49701;48.072;7.800;2022-10-22T17:09:52;18.20;99.90
2663;DHT22;49701;48.072;7.800;2022-10-22T17:12:17;18.00;99.90
2663;DHT22;49701;48.072;7.800;2022-10-22T17:14:43;17.90;99.90
2663;DHT22;49701;48.072;7.800;2022-10-22T17:17:08;17.90;99.90
2663;DHT22;49701;48.072;7.800;2022-10-22T17:19:34;17.80;99.90
2663;DHT22;49701;48.072;7.800;2022-10-22T17:22:03;17.70;99.90
2663;DHT22;49701;48.072;7.800;2022-10-22T17:24:28;17.60;99.90
2663;DHT22;49701;48.072;7.800;2022-10-22T17:26:54;17.50;99.90
2663;DHT22;49701;48.072;7.800;2022-10-22T17:29:19;17.50;99.90
2663;DHT22;49701;48.072;7.800;2022-10-22T17:31:46;17.40;99.90
2663;DHT22;49701;48.072;7.800;2022-10-22T17:34:14;17.30;99.90
2663;DHT22;49701;48.072;7.800;2022-10-22T17:36:39;17.30;99.90
2663;DHT22;49701;48.072;7.800;2022-10-22T17:39:05;17.30;99.90
2663;DHT22;49701;48.072;7.800;2022-10-22T17:41:32;17.20;99.90